Time;durP1;ratioP1;P1;durP2;ratioP2;P2;SDS_P1;SDS_P2;PMS_P1;PMS_P2;Temp;Humidity;BMP_temperature;BMP_pressure;BME280_temperature;BME280_humidity;BME280_pressure;Samples;Min_cycle;Max_cycle;Signal;HPM_P1;HPM_P2
2023/03/03 00:01:10;;;;;;;21.10;12.03;;;1.90;99.90;;;;;;5115211;28;20192;-67
2023/03/03 00:03:36;;;;;;;21.80;12.87;;;1.90;99.90;;;;;;5115339;28;20179;-67
2023/03/03 00:06:03;;;;;;;22.83;12.20;;;1.80;99.90;;;;;;5135069;27;20232;-67
2023/03/03 00:08:28;;;;;;;16.73;11.57;;;1.80;99.90;;;;;;5135401;27;20189;-67
2023/03/03 00:10:54;;;;;;;25.20;11.93;;;1.80;99.90;;;;;;5135597;27;20451;-67
2023/03/03 00:13:25;;;;;;;20.60;12.10;;;1.80;99.90;;;;;;5120294;27;20184;-66
2023/03/03 00:15:51;;;;;;;28.40;14.10;;;1.80;99.90;;;;;;5115050;28;20161;-66
2023/03/03 00:18:25;;;;;;;20.97;12.30;;;1.70;99.90;;;;;;5117834;27;20402;-66
2023/03/03 00:20:56;;;;;;;23.13;12.53;;;1.70;99.90;;;;;;5114887;28;20418;-67
2023/03/03 00:23:28;;;;;;;24.87;13.20;;;1.70;99.90;;;;;;5114933;28;20405;-67
2023/03/03 00:25:54;;;;;;;24.30;12.13;;;1.70;99.90;;;;;;5114751;28;20398;-67
2023/03/03 00:28:47;;;;;;;19.23;11.60;;;1.60;99.90;;;;;;5114668;28;20430;-67
2023/03/03 00:31:19;;;;;;;32.57;13.50;;;1.60;99.90;;;;;;5114669;27;20421;-67
2023/03/03 00:33:53;;;;;;;31.30;12.67;;;1.60;99.90;;;;;;5114725;28;20434;-67
2023/03/03 00:36:30;;;;;;;25.57;12.77;;;1.50;99.90;;;;;;5133872;27;20457;-67
2023/03/03 00:39:16;;;;;;;27.73;13.10;;;1.50;99.90;;;;;;5134858;27;20397;-67
2023/03/03 00:41:41;;;;;;;25.80;13.40;;;1.40;99.90;;;;;;5132914;27;20452;-67
2023/03/03 00:44:40;;;;;;;29.53;13.00;;;1.50;99.90;;;;;;5114489;28;20422;-67
2023/03/03 00:47:26;;;;;;;24.57;11.30;;;1.40;99.90;;;;;;5126385;27;20188;-67
2023/03/03 00:50:26;;;;;;;21.67;13.30;;;1.40;99.90;;;;;;5140821;27;20428;-67
2023/03/03 00:53:16;;;;;;;21.10;12.30;;;1.40;99.90;;;;;;5130049;27;20927;-67
2023/03/03 00:55:42;;;;;;;30.03;14.03;;;1.30;99.90;;;;;;5134888;27;20400;-67
2023/03/03 00:58:08;;;;;;;21.20;12.07;;;1.20;99.90;;;;;;5134259;27;20409;-67
2023/03/03 01:00:35;;;;;;;32.23;14.13;;;1.20;99.90;;;;;;5134931;27;20416;-67
2023/03/03 01:03:03;;;;;;;28.07;12.17;;;1.20;99.90;;;;;;5134526;27;20929;-67
2023/03/03 01:05:29;;;;;;;19.50;12.83;;;1.10;99.90;;;;;;5119222;27;20763;-67
2023/03/03 01:07:55;;;;;;;28.47;12.97;;;1.10;99.90;;;;;;5113003;28;20972;-67
2023/03/03 01:10:21;;;;;;;26.03;14.37;;;1.00;99.90;;;;;;5113855;28;20437;-67
2023/03/03 01:12:46;;;;;;;27.47;12.93;;;1.00;99.90;;;;;;5114764;27;20237;-67
2023/03/03 01:15:14;;;;;;;28.70;14.60;;;1.00;99.90;;;;;;5114035;27;20170;-67
2023/03/03 01:17:40;;;;;;;26.20;15.70;;;0.90;99.90;;;;;;5113740;28;20165;-67
2023/03/03 01:20:07;;;;;;;28.90;14.33;;;0.80;99.90;;;;;;5113717;28;20433;-67
2023/03/03 01:22:33;;;;;;;27.00;14.53;;;0.80;99.90;;;;;;5113943;28;20796;-67
2023/03/03 01:24:58;;;;;;;24.27;14.23;;;0.80;99.90;;;;;;5113787;28;20455;-67
2023/03/03 01:27:24;;;;;;;27.70;16.20;;;0.80;99.90;;;;;;5113322;28;20202;-67
2023/03/03 01:29:49;;;;;;;28.17;15.20;;;0.80;99.90;;;;;;5113646;28;20545;-67
2023/03/03 01:32:15;;;;;;;28.53;16.37;;;0.70;99.90;;;;;;5113566;28;20732;-67
2023/03/03 01:34:40;;;;;;;31.73;16.57;;;0.70;99.90;;;;;;5113497;28;20169;-67
2023/03/03 01:37:06;;;;;;;25.83;14.13;;;0.70;99.90;;;;;;5113210;28;20184;-67
2023/03/03 01:39:31;;;;;;;24.13;13.43;;;0.60;99.90;;;;;;5113483;28;20264;-67
2023/03/03 01:41:57;;;;;;;32.93;14.47;;;0.60;99.90;;;;;;5123247;27;20269;-67
2023/03/03 01:44:22;;;;;;;30.10;13.40;;;0.60;99.90;;;;;;5133897;27;20169;-67
2023/03/03 01:47:10;;;;;;;30.17;15.40;;;0.50;99.90;;;;;;5133771;27;20203;-67
2023/03/03 01:49:44;;;;;;;22.90;13.53;;;0.50;99.90;;;;;;5133750;27;20179;-67
2023/03/03 01:52:16;;;;;;;27.47;14.27;;;0.50;99.90;;;;;;5133828;27;20385;-67
2023/03/03 01:54:49;;;;;;;31.93;15.90;;;0.40;99.90;;;;;;5141865;27;20440;-67
2023/03/03 01:57:22;;;;;;;34.03;14.27;;;0.40;99.90;;;;;;5153497;27;20821;-67
2023/03/03 01:59:49;;;;;;;36.40;15.87;;;0.40;99.90;;;;;;5153931;27;20456;-67
2023/03/03 02:02:15;;;;;;;34.30;14.80;;;0.40;99.90;;;;;;5153839;27;20397;-67
2023/03/03 02:04:41;;;;;;;25.77;14.17;;;0.40;99.90;;;;;;5145462;27;20402;-67
2023/03/03 02:07:09;;;;;;;35.50;16.60;;;0.40;99.90;;;;;;5132800;27;20199;-67
2023/03/03 02:09:54;;;;;;;46.60;16.07;;;0.40;99.90;;;;;;5133349;27;20211;-67
2023/03/03 02:12:24;;;;;;;39.80;15.83;;;0.40;99.90;;;;;;5118198;27;20406;-67
2023/03/03 02:14:50;;;;;;;41.07;16.90;;;0.50;99.90;;;;;;5112797;28;20816;-67
2023/03/03 02:17:16;;;;;;;31.87;15.37;;;0.50;99.90;;;;;;5112507;28;20395;-67
2023/03/03 02:20:11;;;;;;;39.47;16.47;;;0.70;99.90;;;;;;5112645;28;20585;-67
2023/03/03 02:23:06;;;;;;;32.80;15.70;;;0.80;99.90;;;;;;5112706;28;20394;-67
2023/03/03 02:25:46;;;;;;;42.23;19.80;;;1.00;99.90;;;;;;5112945;28;20397;-67
2023/03/03 02:28:11;;;;;;;40.97;16.93;;;1.20;99.90;;;;;;5112546;28;20454;-67
2023/03/03 02:30:38;;;;;;;35.97;17.83;;;1.30;99.90;;;;;;5112677;28;20467;-67
2023/03/03 02:33:05;;;;;;;52.53;20.47;;;1.40;99.90;;;;;;5112690;28;20199;-67
2023/03/03 02:35:34;;;;;;;33.90;17.53;;;1.60;99.90;;;;;;5112704;28;20391;-67
2023/03/03 02:38:15;;;;;;;33.10;16.67;;;1.70;99.90;;;;;;5112495;28;20458;-67
2023/03/03 02:40:48;;;;;;;33.00;18.17;;;1.80;99.90;;;;;;5115770;28;20429;-67
2023/03/03 02:43:17;;;;;;;35.93;17.20;;;1.90;99.90;;;;;;5133368;27;20398;-67
2023/03/03 02:45:43;;;;;;;35.00;15.33;;;2.00;99.90;;;;;;5133422;27;20427;-67
2023/03/03 02:48:09;;;;;;;48.83;18.80;;;2.10;99.90;;;;;;5133208;27;20417;-67
2023/03/03 02:50:35;;;;;;;50.20;20.40;;;2.20;99.90;;;;;;5133533;27;20913;-67
2023/03/03 02:53:00;;;;;;;36.77;17.20;;;2.20;99.90;;;;;;5133157;27;20422;-67
2023/03/03 02:55:26;;;;;;;36.07;18.80;;;2.20;99.90;;;;;;5133385;28;20229;-67
2023/03/03 02:57:52;;;;;;;31.20;16.67;;;2.30;99.90;;;;;;5134172;27;20488;-66
2023/03/03 03:00:17;;;;;;;33.17;15.20;;;2.40;99.90;;;;;;5136387;27;20658;-66
2023/03/03 03:02:43;;;;;;;32.40;17.30;;;2.40;99.90;;;;;;5135671;28;20187;-67
2023/03/03 03:05:08;;;;;;;36.43;16.00;;;2.50;99.90;;;;;;5142538;27;20171;-67
2023/03/03 03:07:34;;;;;;;35.13;15.77;;;2.50;99.90;;;;;;5140199;27;20211;-66
2023/03/03 03:10:00;;;;;;;32.60;16.93;;;2.60;99.90;;;;;;5136434;27;20190;-65
2023/03/03 03:12:25;;;;;;;30.50;16.07;;;2.60;99.90;;;;;;5125206;28;20180;-67
2023/03/03 03:14:51;;;;;;;28.63;15.47;;;2.70;99.90;;;;;;5112816;28;20518;-66
2023/03/03 03:17:16;;;;;;;25.57;14.90;;;2.70;99.90;;;;;;5111690;28;20214;-68
2023/03/03 03:19:42;;;;;;;37.50;15.53;;;2.70;99.90;;;;;;5111879;28;20241;-67
2023/03/03 03:22:07;;;;;;;28.93;15.60;;;2.70;99.90;;;;;;5111954;28;20176;-67
2023/03/03 03:24:33;;;;;;;39.83;15.97;;;2.80;99.90;;;;;;5111927;28;20169;-66
2023/03/03 03:26:58;;;;;;;31.67;16.37;;;2.80;99.90;;;;;;5112228;28;20307;-67
2023/03/03 03:29:24;;;;;;;35.37;17.17;;;2.80;99.90;;;;;;5115911;28;20177;-66
2023/03/03 03:31:49;;;;;;;38.27;16.97;;;2.80;99.90;;;;;;5118448;28;20623;-66
2023/03/03 03:34:15;;;;;;;34.73;16.13;;;2.80;99.90;;;;;;5115848;28;20618;-66
2023/03/03 03:36:41;;;;;;;39.87;17.00;;;2.80;99.90;;;;;;5115748;28;20175;-67
2023/03/03 03:39:07;;;;;;;35.97;14.13;;;2.80;99.90;;;;;;5122944;27;20176;-66
2023/03/03 03:41:32;;;;;;;45.80;16.53;;;2.80;99.90;;;;;;5135889;27;21141;-66
2023/03/03 03:43:58;;;;;;;38.90;16.60;;;2.80;99.90;;;;;;5136003;27;20727;-66
2023/03/03 03:46:24;;;;;;;28.87;15.97;;;2.90;99.90;;;;;;5136325;27;20196;-66
2023/03/03 03:48:49;;;;;;;39.50;16.73;;;2.90;99.90;;;;;;5135803;27;20173;-66
2023/03/03 03:51:15;;;;;;;26.27;13.87;;;2.90;99.90;;;;;;5136009;27;20271;-66
2023/03/03 03:53:40;;;;;;;35.80;15.30;;;2.90;99.90;;;;;;5135822;27;20203;-66
2023/03/03 03:56:06;;;;;;;26.23;13.27;;;2.80;99.90;;;;;;5135917;27;20228;-66
2023/03/03 03:58:31;;;;;;;32.83;14.43;;;2.80;99.90;;;;;;5135469;27;20180;-66
2023/03/03 04:01:06;;;;;;;30.43;14.53;;;2.80;99.90;;;;;;5120800;27;20994;-67
2023/03/03 04:03:31;;;;;;;31.83;15.40;;;2.90;99.90;;;;;;5115847;28;20249;-67
2023/03/03 04:05:57;;;;;;;38.83;17.37;;;2.80;99.90;;;;;;5115737;28;20454;-67
2023/03/03 04:08:22;;;;;;;35.63;15.73;;;2.90;99.90;;;;;;5115710;28;20634;-67
2023/03/03 04:10:48;;;;;;;30.27;15.30;;;2.90;99.90;;;;;;5116837;28;20223;-66
2023/03/03 04:13:13;;;;;;;30.37;15.03;;;2.90;99.90;;;;;;5118325;28;20183;-66
2023/03/03 04:15:39;;;;;;;32.60;15.23;;;3.00;99.90;;;;;;5124574;27;20208;-68
2023/03/03 04:18:04;;;;;;;36.63;15.20;;;3.00;99.90;;;;;;5149994;27;20271;-67
2023/03/03 04:20:30;;;;;;;34.80;13.93;;;3.00;99.90;;;;;;5135445;27;20263;-67
2023/03/03 04:22:56;;;;;;;54.77;23.13;;;3.10;99.90;;;;;;5135495;27;20543;-68
2023/03/03 04:25:21;;;;;;;39.23;18.83;;;3.10;99.90;;;;;;5135394;27;20630;-68
2023/03/03 04:27:47;;;;;;;32.60;15.03;;;3.10;99.90;;;;;;5135008;27;20191;-68
2023/03/03 04:30:15;;;;;;;34.47;14.20;;;3.10;99.90;;;;;;5135207;27;20184;-67
2023/03/03 04:32:41;;;;;;;39.20;17.57;;;3.20;99.90;;;;;;5135970;27;20164;-68
2023/03/03 04:35:07;;;;;;;37.50;16.53;;;3.10;99.90;;;;;;5136065;27;20915;-68
2023/03/03 04:37:33;;;;;;;33.27;16.63;;;3.10;99.90;;;;;;5135937;27;20397;-68
2023/03/03 04:39:58;;;;;;;29.27;14.70;;;3.10;99.90;;;;;;5135862;27;20424;-68
2023/03/03 04:42:24;;;;;;;33.17;14.50;;;3.10;99.90;;;;;;5134464;27;20420;-68
2023/03/03 04:44:49;;;;;;;39.77;17.67;;;3.10;99.90;;;;;;5135599;27;20221;-68
2023/03/03 04:47:15;;;;;;;36.57;16.10;;;3.10;99.90;;;;;;5134587;27;20248;-68
2023/03/03 04:49:40;;;;;;;29.57;15.37;;;3.00;99.90;;;;;;5137304;27;20615;-67
2023/03/03 04:52:06;;;;;;;49.77;19.67;;;3.00;99.90;;;;;;5138739;27;20171;-67
2023/03/03 04:54:31;;;;;;;36.80;15.73;;;3.00;99.90;;;;;;5133840;27;20625;-69
2023/03/03 04:56:57;;;;;;;37.63;16.93;;;3.10;99.90;;;;;;5123202;27;20614;-68
2023/03/03 04:59:22;;;;;;;29.30;17.73;;;3.10;99.90;;;;;;5114066;28;20179;-68
2023/03/03 05:01:49;;;;;;;31.97;16.30;;;3.10;99.90;;;;;;5114588;28;20180;-67
2023/03/03 05:04:15;;;;;;;33.10;16.93;;;3.10;99.90;;;;;;5116046;28;20161;-68
2023/03/03 05:06:41;;;;;;;36.20;16.77;;;3.10;99.90;;;;;;5116887;28;20442;-69
2023/03/03 05:09:06;;;;;;;37.63;16.20;;;3.10;99.90;;;;;;5114308;28;20165;-67
2023/03/03 05:11:32;;;;;;;30.10;15.37;;;3.10;99.90;;;;;;5116751;28;20196;-68
2023/03/03 05:13:58;;;;;;;32.53;17.07;;;3.10;99.90;;;;;;5118069;28;20214;-66
2023/03/03 05:16:23;;;;;;;27.47;15.00;;;3.10;99.90;;;;;;5117187;28;20180;-67
2023/03/03 05:18:49;;;;;;;30.67;14.70;;;3.00;99.90;;;;;;5113976;28;20410;-67
2023/03/03 05:21:14;;;;;;;32.63;16.43;;;3.10;99.90;;;;;;5113649;28;20203;-67
2023/03/03 05:23:40;;;;;;;30.07;13.57;;;3.10;99.90;;;;;;5113573;28;20172;-67
2023/03/03 05:26:05;;;;;;;34.17;17.70;;;3.10;99.90;;;;;;5128691;27;20588;-67
2023/03/03 05:28:32;;;;;;;33.93;14.57;;;3.10;99.90;;;;;;5141665;27;20541;-67
2023/03/03 05:30:57;;;;;;;28.00;14.20;;;3.10;99.90;;;;;;5134044;27;20221;-68
2023/03/03 05:33:23;;;;;;;42.83;17.80;;;3.10;99.90;;;;;;5134739;27;20490;-68
2023/03/03 05:35:53;;;;;;;30.40;16.10;;;3.10;99.90;;;;;;5134220;27;20164;-69
2023/03/03 05:38:19;;;;;;;29.87;14.07;;;3.10;99.90;;;;;;5133678;27;20166;-68
2023/03/03 05:40:45;;;;;;;34.77;15.93;;;3.20;99.90;;;;;;5133661;27;20426;-67
2023/03/03 05:43:11;;;;;;;28.67;15.37;;;3.20;99.90;;;;;;5136950;27;20177;-68
2023/03/03 05:45:37;;;;;;;38.43;16.20;;;3.20;99.90;;;;;;5138119;27;20432;-69
2023/03/03 05:48:03;;;;;;;29.00;15.43;;;3.20;99.90;;;;;;5134626;27;20196;-67
2023/03/03 05:50:29;;;;;;;32.87;16.40;;;3.20;99.90;;;;;;5135308;27;20270;-68
2023/03/03 05:52:55;;;;;;;26.03;13.20;;;3.20;99.90;;;;;;5137452;27;20498;-68
2023/03/03 05:55:20;;;;;;;34.03;14.03;;;3.10;99.90;;;;;;5124537;27;20430;-67
2023/03/03 05:57:46;;;;;;;22.13;13.43;;;3.10;99.90;;;;;;5113854;28;20176;-67
2023/03/03 06:00:13;;;;;;;27.87;14.07;;;3.10;99.90;;;;;;5114931;27;20192;-68
2023/03/03 06:02:40;;;;;;;29.57;13.40;;;3.10;99.90;;;;;;5133431;27;20182;-69
2023/03/03 06:05:07;;;;;;;27.20;13.20;;;3.00;99.90;;;;;;5121322;27;20451;-69
2023/03/03 06:07:32;;;;;;;28.67;14.03;;;3.10;99.90;;;;;;5112558;28;20481;-68
2023/03/03 06:09:58;;;;;;;27.73;12.43;;;3.10;99.90;;;;;;5112807;28;20505;-69
2023/03/03 06:12:23;;;;;;;29.87;13.70;;;3.10;99.90;;;;;;5112708;28;20665;-67
2023/03/03 06:14:49;;;;;;;27.10;15.27;;;3.10;99.90;;;;;;5113021;28;20197;-69
2023/03/03 06:17:14;;;;;;;35.30;18.50;;;3.00;99.90;;;;;;5118667;27;20231;-68
2023/03/03 06:19:40;;;;;;;23.33;13.40;;;3.00;99.90;;;;;;5124862;27;20203;-67
2023/03/03 06:22:07;;;;;;;33.53;13.50;;;3.00;99.90;;;;;;5117231;28;20167;-68
2023/03/03 06:24:33;;;;;;;25.97;12.77;;;3.00;99.90;;;;;;5117139;28;20229;-68
2023/03/03 06:26:59;;;;;;;27.20;11.50;;;3.00;99.90;;;;;;5112410;28;20499;-69
2023/03/03 06:29:25;;;;;;;21.37;10.80;;;3.00;99.90;;;;;;5112888;28;20403;-69
2023/03/03 06:31:51;;;;;;;21.37;12.27;;;3.00;99.90;;;;;;5113227;28;20796;-69
2023/03/03 06:34:16;;;;;;;35.30;14.67;;;2.80;99.90;;;;;;5122813;27;20415;-68
2023/03/03 06:36:42;;;;;;;29.90;13.23;;;2.80;99.90;;;;;;5142839;27;20250;-68
2023/03/03 06:39:07;;;;;;;30.07;14.17;;;2.90;99.90;;;;;;5116441;27;20187;-68
2023/03/03 06:41:33;;;;;;;35.53;16.33;;;2.90;99.90;;;;;;5112287;28;20300;-69
2023/03/03 06:43:59;;;;;;;23.00;12.00;;;3.00;99.90;;;;;;5112546;28;20172;-68
2023/03/03 06:46:25;;;;;;;29.33;13.83;;;3.00;99.90;;;;;;5112332;28;20686;-69
2023/03/03 06:48:51;;;;;;;29.73;14.37;;;3.00;99.90;;;;;;5115162;28;20225;-67
2023/03/03 06:51:25;;;;;;;33.97;14.17;;;3.00;99.90;;;;;;5116758;28;20823;-69
2023/03/03 06:53:54;;;;;;;27.17;14.87;;;3.00;99.90;;;;;;5116002;28;20435;-69
2023/03/03 06:56:21;;;;;;;30.20;15.20;;;3.00;99.90;;;;;;5115093;28;20411;-68
2023/03/03 06:58:47;;;;;;;31.90;14.87;;;3.10;99.90;;;;;;5111904;28;20476;-69
2023/03/03 07:01:16;;;;;;;23.57;14.03;;;3.10;99.90;;;;;;5112115;28;21001;-68
2023/03/03 07:03:42;;;;;;;30.80;13.47;;;3.10;99.90;;;;;;5114890;28;20424;-69
2023/03/03 07:06:23;;;;;;;27.90;14.00;;;3.10;99.90;;;;;;5136108;27;20429;-68
2023/03/03 07:08:50;;;;;;;27.23;13.47;;;3.10;99.90;;;;;;5119806;27;20775;-67
2023/03/03 07:11:19;;;;;;;39.33;14.00;;;3.20;99.90;;;;;;5115951;28;20930;-69
2023/03/03 07:13:50;;;;;;;25.73;13.03;;;3.20;99.90;;;;;;5116080;28;20781;-69
2023/03/03 07:16:17;;;;;;;27.60;15.00;;;3.30;99.90;;;;;;5116392;28;20741;-67
2023/03/03 07:18:52;;;;;;;26.77;14.33;;;3.30;99.90;;;;;;5116434;28;20409;-68
2023/03/03 07:21:21;;;;;;;29.27;13.87;;;3.30;99.90;;;;;;5116075;28;20416;-67
2023/03/03 07:23:51;;;;;;;27.33;13.70;;;3.30;99.90;;;;;;5116075;28;20410;-68
2023/03/03 07:26:24;;;;;;;22.10;12.07;;;3.30;99.90;;;;;;5115751;28;20441;-67
2023/03/03 07:28:57;;;;;;;26.80;15.10;;;3.40;99.90;;;;;;5115678;27;20405;-68
2023/03/03 07:31:44;;;;;;;24.10;13.00;;;3.40;99.90;;;;;;5115032;28;20453;-68
2023/03/03 07:34:21;;;;;;;26.80;12.63;;;3.50;99.90;;;;;;5117314;28;20766;-67
2023/03/03 07:36:58;;;;;;;32.50;14.53;;;3.60;99.90;;;;;;5119627;28;20522;-69
2023/03/03 07:39:35;;;;;;;33.83;14.90;;;3.70;99.90;;;;;;5131674;27;20457;-68
2023/03/03 07:42:16;;;;;;;31.43;14.90;;;3.70;99.90;;;;;;5149074;27;20403;-68
2023/03/03 07:44:42;;;;;;;23.70;13.43;;;3.80;99.90;;;;;;5156944;27;21043;-68
2023/03/03 07:47:27;;;;;;;27.67;13.90;;;3.80;99.90;;;;;;5156453;27;20546;-68
2023/03/03 07:49:59;;;;;;;30.50;14.90;;;3.90;99.90;;;;;;5156735;27;20180;-68
2023/03/03 07:52:34;;;;;;;31.43;15.43;;;3.90;99.90;;;;;;5156793;27;20403;-68
2023/03/03 07:55:18;;;;;;;31.00;15.00;;;4.00;99.90;;;;;;5156672;27;20404;-69
2023/03/03 07:57:44;;;;;;;35.47;19.63;;;4.00;99.90;;;;;;5157678;27;20479;-67
2023/03/03 08:00:15;;;;;;;29.63;16.27;;;3.90;99.90;;;;;;5161361;27;20428;-69
2023/03/03 08:02:48;;;;;;;33.23;15.93;;;4.00;99.90;;;;;;5157626;27;20191;-68
2023/03/03 08:05:25;;;;;;;26.53;14.47;;;3.90;99.90;;;;;;5143300;27;20406;-67
2023/03/03 08:07:51;;;;;;;34.33;14.97;;;4.00;99.90;;;;;;5126713;27;20602;-68
2023/03/03 08:10:43;;;;;;;31.87;14.00;;;4.00;99.90;;;;;;5118831;28;20469;-68
2023/03/03 08:13:22;;;;;;;38.67;15.43;;;4.10;99.90;;;;;;5115041;28;20433;-68
2023/03/03 08:15:51;;;;;;;21.83;12.63;;;4.20;99.90;;;;;;5123149;27;20436;-68
2023/03/03 08:18:26;;;;;;;24.50;12.40;;;4.20;99.90;;;;;;5135487;27;20401;-68
2023/03/03 08:20:56;;;;;;;39.47;14.73;;;4.30;99.90;;;;;;5135406;27;20421;-69
2023/03/03 08:23:22;;;;;;;31.80;14.80;;;4.40;99.90;;;;;;5134370;27;20418;-69
2023/03/03 08:25:49;;;;;;;30.93;12.73;;;4.50;99.90;;;;;;5135668;27;20434;-69
2023/03/03 08:28:15;;;;;;;25.83;10.97;;;4.50;99.90;;;;;;5135139;27;20188;-69
2023/03/03 08:30:41;;;;;;;24.17;12.03;;;4.50;99.90;;;;;;5135374;27;20421;-66
2023/03/03 08:33:07;;;;;;;26.73;15.97;;;4.60;99.90;;;;;;5135657;27;20409;-68
2023/03/03 08:35:33;;;;;;;26.77;12.70;;;4.70;99.90;;;;;;5138338;27;20405;-68
2023/03/03 08:37:59;;;;;;;26.90;13.27;;;4.80;99.90;;;;;;5129154;27;20402;-66
2023/03/03 08:40:25;;;;;;;30.37;13.10;;;4.80;99.90;;;;;;5137852;27;20252;-67
2023/03/03 08:42:50;;;;;;;35.73;15.67;;;4.90;99.90;;;;;;5138880;27;20438;-68
2023/03/03 08:45:16;;;;;;;27.20;15.40;;;5.00;99.90;;;;;;5129208;27;20172;-67
2023/03/03 08:47:43;;;;;;;31.47;12.63;;;5.10;99.90;;;;;;5120744;27;20204;-68
2023/03/03 08:50:10;;;;;;;27.17;14.77;;;5.10;99.90;;;;;;5126658;27;20187;-68
2023/03/03 08:52:35;;;;;;;31.03;15.43;;;5.10;99.90;;;;;;5140042;27;20412;-67
2023/03/03 08:55:01;;;;;;;30.03;14.43;;;5.10;99.90;;;;;;5117790;27;20908;-67
2023/03/03 08:57:27;;;;;;;34.40;14.60;;;5.10;99.90;;;;;;5116083;27;20410;-68
2023/03/03 08:59:56;;;;;;;25.13;12.67;;;5.20;99.90;;;;;;5116775;28;20444;-67
2023/03/03 09:02:22;;;;;;;23.70;13.90;;;5.20;99.90;;;;;;5116156;28;20204;-70
2023/03/03 09:04:47;;;;;;;23.43;12.20;;;5.20;99.90;;;;;;5125910;27;20434;-66
2023/03/03 09:07:13;;;;;;;26.00;13.10;;;5.30;99.90;;;;;;5117271;27;20249;-68
2023/03/03 09:09:39;;;;;;;26.50;12.60;;;5.30;99.90;;;;;;5116979;28;20201;-68
2023/03/03 09:12:33;;;;;;;25.97;12.50;;;5.40;99.90;;;;;;5116468;27;20527;-69
2023/03/03 09:15:14;;;;;;;30.60;13.47;;;5.40;99.90;;;;;;5116659;27;20669;-68
2023/03/03 09:17:40;;;;;;;28.30;12.80;;;5.50;99.90;;;;;;5117055;27;20478;-68
2023/03/03 09:20:38;;;;;;;27.77;12.53;;;5.60;99.90;;;;;;5117338;28;20438;-68
2023/03/03 09:23:26;;;;;;;28.20;14.67;;;5.70;99.90;;;;;;5116700;27;20801;-68
2023/03/03 09:25:52;;;;;;;28.43;13.40;;;5.80;99.90;;;;;;5125247;27;20765;-68
2023/03/03 09:28:29;;;;;;;24.87;13.30;;;5.80;99.90;;;;;;5115352;28;20458;-68
2023/03/03 09:31:02;;;;;;;23.80;11.30;;;5.80;99.90;;;;;;5115019;28;20438;-67
2023/03/03 09:33:39;;;;;;;27.73;14.27;;;5.90;99.90;;;;;;5117384;28;20796;-68
2023/03/03 09:36:23;;;;;;;26.73;13.20;;;5.90;99.90;;;;;;5116819;28;20915;-68
2023/03/03 09:38:49;;;;;;;25.33;12.90;;;5.90;99.90;;;;;;5116488;28;20417;-67
2023/03/03 09:41:33;;;;;;;31.17;13.93;;;5.90;99.90;;;;;;5114455;28;20430;-69
2023/03/03 09:44:20;;;;;;;24.43;11.50;;;6.00;99.90;;;;;;5116593;27;20218;-68
2023/03/03 09:46:54;;;;;;;31.03;14.10;;;6.00;99.90;;;;;;5116582;27;20465;-70
2023/03/03 09:49:46;;;;;;;21.30;10.53;;;6.10;99.90;;;;;;5116097;27;20413;-68
2023/03/03 09:52:30;;;;;;;28.10;14.10;;;6.20;99.90;;;;;;5117086;28;20459;-67
2023/03/03 09:55:29;;;;;;;29.00;12.20;;;6.30;99.90;;;;;;5115655;28;20486;-67
2023/03/03 09:58:12;;;;;;;29.50;14.20;;;6.40;99.90;;;;;;5116742;28;20822;-67
2023/03/03 10:00:57;;;;;;;25.97;13.20;;;6.50;99.90;;;;;;5117878;28;20443;-67
2023/03/03 10:03:46;;;;;;;25.80;13.67;;;6.60;99.90;;;;;;5139823;27;20807;-67
2023/03/03 10:06:43;;;;;;;33.57;14.67;;;6.70;99.90;;;;;;5118285;27;20921;-68
2023/03/03 10:09:56;;;;;;;33.23;15.70;;;6.70;99.90;;;;;;5116529;28;20407;-68
2023/03/03 10:12:37;;;;;;;27.10;13.43;;;6.70;99.90;;;;;;5047055;28;20966;-68
2023/03/03 10:15:42;;;;;;;28.77;12.13;;;6.70;99.90;;;;;;5053057;28;20483;-67
2023/03/03 10:18:07;;;;;;;23.50;12.77;;;6.70;99.90;;;;;;5080474;27;20414;-69
2023/03/03 10:20:48;;;;;;;27.37;13.47;;;6.70;99.90;;;;;;5114112;28;20423;-67
2023/03/03 10:23:35;;;;;;;25.93;13.13;;;6.70;99.90;;;;;;5116012;28;20599;-68
2023/03/03 10:26:10;;;;;;;23.40;12.10;;;6.80;99.90;;;;;;5114122;28;20410;-68
2023/03/03 10:28:56;;;;;;;23.37;10.87;;;6.80;99.90;;;;;;5113443;28;20410;-68
2023/03/03 10:31:33;;;;;;;26.73;14.57;;;6.90;99.90;;;;;;5114824;28;20786;-67
2023/03/03 10:34:32;;;;;;;30.10;13.57;;;7.00;99.90;;;;;;5114675;28;20438;-68
2023/03/03 10:37:07;;;;;;;33.53;13.07;;;7.10;99.90;;;;;;5121283;28;20455;-67
2023/03/03 10:39:38;;;;;;;25.70;12.73;;;7.20;99.90;;;;;;5114625;28;20892;-68
2023/03/03 10:42:21;;;;;;;33.90;13.30;;;7.30;99.90;;;;;;5114799;28;20414;-68
2023/03/03 10:44:56;;;;;;;30.50;14.03;;;7.40;99.90;;;;;;5114190;28;20407;-66
2023/03/03 10:47:34;;;;;;;31.03;15.20;;;7.40;99.90;;;;;;5112065;28;20472;-67
2023/03/03 10:50:25;;;;;;;30.80;15.27;;;7.50;99.90;;;;;;5112329;28;20522;-68
2023/03/03 10:52:55;;;;;;;25.83;12.93;;;7.60;99.90;;;;;;5102911;28;20830;-68
2023/03/03 10:55:44;;;;;;;31.40;15.27;;;7.60;99.90;;;;;;5119136;28;20403;-69
2023/03/03 10:58:19;;;;;;;33.87;14.70;;;7.70;99.90;;;;;;5111378;28;20426;-67
2023/03/03 11:00:50;;;;;;;33.43;13.73;;;7.70;99.90;;;;;;5112759;28;20422;-67
2023/03/03 11:03:41;;;;;;;31.77;15.47;;;7.70;99.90;;;;;;5111065;28;20423;-68
2023/03/03 11:06:52;;;;;;;26.73;12.30;;;7.80;99.90;;;;;;5112546;28;20453;-68
2023/03/03 11:09:36;;;;;;;31.37;14.80;;;7.80;99.90;;;;;;5112579;28;20414;-68
2023/03/03 11:12:44;;;;;;;26.60;12.50;;;7.90;99.90;;;;;;5137358;27;20408;-68
2023/03/03 11:15:40;;;;;;;25.30;13.40;;;8.00;99.90;;;;;;5112196;28;20418;-69
2023/03/03 11:18:14;;;;;;;33.77;15.57;;;8.10;99.90;;;;;;5110481;28;20932;-68
2023/03/03 11:20:59;;;;;;;28.73;14.70;;;8.30;99.90;;;;;;5112134;28;20828;-66
2023/03/03 11:23:48;;;;;;;26.50;13.53;;;8.40;99.90;;;;;;5111886;28;20445;-67
2023/03/03 11:26:27;;;;;;;26.97;13.63;;;8.60;99.90;;;;;;5113435;28;20811;-68
2023/03/03 11:29:20;;;;;;;30.23;14.57;;;8.60;99.90;;;;;;5111497;28;20904;-68
2023/03/03 11:31:54;;;;;;;32.60;15.33;;;8.40;99.90;;;;;;5112091;28;20861;-69
2023/03/03 11:34:46;;;;;;;28.50;12.83;;;8.50;99.90;;;;;;5112824;28;21058;-68
2023/03/03 11:37:27;;;;;;;30.17;14.70;;;8.60;99.90;;;;;;5111841;28;20449;-68
2023/03/03 11:39:55;;;;;;;24.30;14.17;;;8.50;99.90;;;;;;5113380;28;20430;-69
2023/03/03 11:42:46;;;;;;;33.67;15.10;;;8.60;99.90;;;;;;5113969;28;20435;-69
2023/03/03 11:45:16;;;;;;;34.90;15.10;;;8.70;99.90;;;;;;5112424;28;20406;-68
2023/03/03 11:48:04;;;;;;;40.17;18.30;;;8.70;99.90;;;;;;5114218;28;20481;-67
2023/03/03 11:50:37;;;;;;;35.83;14.97;;;8.80;99.90;;;;;;5115355;28;20457;-66
2023/03/03 11:53:23;;;;;;;30.50;14.60;;;8.70;99.90;;;;;;5119648;28;20482;-66
2023/03/03 11:55:56;;;;;;;35.30;16.07;;;8.80;99.90;;;;;;5137095;27;20792;-69
2023/03/03 11:58:29;;;;;;;36.30;15.33;;;8.80;99.90;;;;;;5139773;27;20497;-67
2023/03/03 12:01:03;;;;;;;37.50;17.37;;;8.80;99.90;;;;;;5140187;27;20425;-67
2023/03/03 12:03:46;;;;;;;27.60;15.27;;;8.80;99.90;;;;;;5140672;27;20438;-68
2023/03/03 12:06:20;;;;;;;34.57;18.00;;;8.80;99.90;;;;;;5119747;27;20406;-68
2023/03/03 12:09:25;;;;;;;34.10;15.13;;;8.80;99.90;;;;;;5118885;28;20551;-68
2023/03/03 12:12:04;;;;;;;30.27;15.47;;;8.80;99.90;;;;;;5119336;28;20452;-67
2023/03/03 12:14:54;;;;;;;29.47;16.10;;;8.80;99.90;;;;;;5118542;28;20414;-68
2023/03/03 12:17:19;;;;;;;32.23;14.67;;;8.80;99.90;;;;;;5123071;27;20410;-66
2023/03/03 12:20:14;;;;;;;30.27;16.37;;;8.90;99.90;;;;;;5122391;27;20889;-66
2023/03/03 12:23:09;;;;;;;32.17;16.38;;;8.90;99.90;;;;;;5127373;27;20505;-66
2023/03/03 12:25:50;;;;;;;29.73;13.03;;;9.00;99.90;;;;;;5147170;27;20183;-67
2023/03/03 12:28:23;;;;;;;31.27;14.03;;;9.10;99.90;;;;;;5139070;27;20475;-68
2023/03/03 12:30:58;;;;;;;29.17;14.20;;;9.10;99.90;;;;;;5138663;27;20451;-68
2023/03/03 12:33:50;;;;;;;29.08;16.00;;;9.10;99.90;;;;;;5138548;27;20393;-68
2023/03/03 12:36:21;;;;;;;25.90;14.07;;;9.20;99.90;;;;;;5122641;27;20179;-68
2023/03/03 12:39:05;;;;;;;27.53;13.93;;;9.40;99.90;;;;;;5118609;28;20464;-66
2023/03/03 12:41:51;;;;;;;33.53;15.33;;;9.40;99.90;;;;;;5119334;27;20437;-67
2023/03/03 12:44:39;;;;;;;32.57;16.10;;;9.40;99.90;;;;;;5118978;27;20405;-67
2023/03/03 12:47:21;;;;;;;24.27;13.10;;;9.30;99.90;;;;;;5123241;27;20506;-65
2023/03/03 12:49:58;;;;;;;25.93;12.30;;;9.30;99.90;;;;;;5126038;27;20414;-65
2023/03/03 12:52:59;;;;;;;28.07;14.70;;;9.30;99.90;;;;;;5118974;27;20399;-66
2023/03/03 12:55:46;;;;;;;28.60;13.73;;;9.40;99.90;;;;;;5122093;27;20770;-66
2023/03/03 12:58:15;;;;;;;27.33;14.57;;;9.50;99.90;;;;;;5123271;27;20908;-68
2023/03/03 13:01:02;;;;;;;29.70;15.63;;;9.50;99.90;;;;;;5133514;27;20430;-68
2023/03/03 13:03:36;;;;;;;30.87;14.70;;;9.60;99.90;;;;;;5117345;27;20414;-68